createdAt,value
2023-02-27T00:00:14.980Z,0.38
2023-02-27T00:02:43.367Z,0.46
2023-02-27T00:05:11.474Z,0.47
2023-02-27T00:07:39.540Z,0.51
2023-02-27T00:10:10.162Z,0.47
2023-02-27T00:12:39.082Z,0.49
2023-02-27T00:15:10.708Z,0.45
2023-02-27T00:17:39.260Z,0.52
2023-02-27T00:20:11.322Z,0.48
2023-02-27T00:22:39.385Z,0.37
2023-02-27T00:25:08.349Z,0.37
2023-02-27T00:27:37.432Z,0.43
2023-02-27T00:30:06.505Z,0.38
2023-02-27T00:32:36.769Z,0.40
2023-02-27T00:35:05.523Z,0.37
2023-02-27T00:37:34.454Z,0.41
2023-02-27T00:40:04.080Z,0.43
2023-02-27T00:42:32.252Z,0.42
2023-02-27T00:44:59.978Z,0.40
2023-02-27T00:47:27.927Z,0.47
2023-02-27T00:49:57.090Z,0.45
2023-02-27T00:52:24.781Z,0.55
2023-02-27T00:54:52.614Z,0.42
2023-02-27T00:57:20.452Z,0.34
2023-02-27T00:59:49.062Z,0.45
2023-02-27T01:02:16.828Z,0.50
2023-02-27T01:04:44.804Z,0.45
2023-02-27T01:07:13.978Z,0.42
2023-02-27T01:09:41.700Z,0.47
2023-02-27T01:12:09.919Z,0.46
2023-02-27T01:14:38.139Z,0.39
2023-02-27T01:17:06.047Z,0.35
2023-02-27T01:19:33.880Z,0.35
2023-02-27T01:22:01.638Z,0.39
2023-02-27T01:24:30.777Z,0.42
2023-02-27T01:26:58.491Z,0.44
2023-02-27T01:29:26.359Z,0.48
2023-02-27T01:31:54.941Z,0.24
2023-02-27T01:34:22.770Z,0.26
2023-02-27T01:36:50.694Z,0.27
2023-02-27T01:39:18.546Z,0.37
2023-02-27T01:41:47.837Z,0.40
2023-02-27T01:44:15.856Z,0.38
2023-02-27T01:46:44.558Z,0.39
2023-02-27T01:49:15.286Z,0.26
2023-02-27T01:51:47.151Z,0.27
2023-02-27T01:54:18.754Z,0.38
2023-02-27T01:56:48.753Z,0.38
2023-02-27T01:59:17.486Z,0.32
2023-02-27T02:01:45.993Z,0.29
2023-02-27T02:04:21.313Z,0.38
2023-02-27T02:06:51.690Z,0.29
2023-02-27T02:09:22.427Z,0.36
2023-02-27T02:11:52.506Z,0.28
2023-02-27T02:14:20.295Z,0.29
2023-02-27T02:17:04.993Z,0.35
2023-02-27T02:19:54.358Z,0.36
2023-02-27T02:22:54.875Z,0.35
2023-02-27T02:25:55.328Z,0.32
2023-02-27T02:28:41.806Z,0.29
2023-02-27T02:31:29.207Z,0.33
2023-02-27T02:34:32.063Z,0.27
2023-02-27T02:37:44.468Z,0.28
2023-02-27T02:40:31.920Z,0.30
2023-02-27T02:43:09.498Z,0.36
2023-02-27T02:45:45.317Z,0.27
2023-02-27T02:48:15.343Z,0.36
2023-02-27T02:50:50.252Z,0.38
2023-02-27T02:53:36.591Z,0.25
2023-02-27T02:56:12.332Z,0.36
2023-02-27T02:58:47.601Z,0.29
2023-02-27T03:01:17.189Z,0.30
2023-02-27T03:03:49.611Z,0.34
2023-02-27T03:06:22.642Z,0.26
2023-02-27T03:08:55.937Z,0.29
2023-02-27T03:11:29.231Z,0.29
2023-02-27T03:14:03.075Z,0.24
2023-02-27T03:16:36.290Z,0.26
2023-02-27T03:19:09.152Z,0.34
2023-02-27T03:21:42.201Z,0.20
2023-02-27T03:24:15.806Z,0.23
2023-02-27T03:26:47.733Z,0.18
2023-02-27T03:29:17.204Z,0.39
2023-02-27T03:31:51.142Z,0.26
2023-02-27T03:34:23.981Z,0.23
2023-02-27T03:36:59.403Z,0.32
2023-02-27T03:39:36.484Z,0.36
2023-02-27T03:42:16.308Z,0.40
2023-02-27T03:44:54.844Z,0.22
2023-02-27T03:47:23.192Z,0.28
2023-02-27T03:49:52.104Z,0.33
2023-02-27T03:52:20.870Z,0.24
2023-02-27T03:54:54.957Z,0.22
2023-02-27T03:57:24.286Z,0.29
2023-02-27T03:59:53.235Z,0.33
2023-02-27T04:02:22.377Z,0.35
2023-02-27T04:04:50.151Z,0.37
2023-02-27T04:07:26.716Z,0.35
2023-02-27T04:10:22.556Z,0.36
2023-02-27T04:13:07.342Z,0.41
2023-02-27T04:15:48.077Z,0.38
2023-02-27T04:18:26.879Z,0.38
2023-02-27T04:20:58.333Z,0.28
2023-02-27T04:23:35.739Z,0.35
2023-02-27T04:26:18.022Z,0.33
2023-02-27T04:28:55.075Z,0.39
2023-02-27T04:31:28.804Z,0.38
2023-02-27T04:34:03.684Z,0.45
2023-02-27T04:36:36.838Z,0.39
2023-02-27T04:39:08.498Z,0.49
2023-02-27T04:41:41.249Z,0.52
2023-02-27T04:44:12.779Z,0.36
2023-02-27T04:46:43.937Z,0.32
2023-02-27T04:49:17.447Z,0.37
2023-02-27T04:51:51.933Z,0.36
2023-02-27T04:54:26.026Z,0.45
2023-02-27T04:56:57.535Z,0.41
2023-02-27T04:59:29.509Z,0.40
2023-02-27T05:02:01.244Z,0.44
2023-02-27T05:04:34.017Z,0.38
2023-02-27T05:07:04.072Z,0.31
2023-02-27T05:09:37.800Z,0.35
2023-02-27T05:12:16.396Z,0.33
2023-02-27T05:14:52.329Z,0.45
2023-02-27T05:17:24.311Z,0.38
2023-02-27T05:19:52.198Z,0.34
2023-02-27T05:22:31.157Z,0.38
2023-02-27T05:25:04.348Z,0.27
2023-02-27T05:27:37.167Z,0.33
2023-02-27T05:30:13.694Z,0.28
2023-02-27T05:32:47.657Z,0.29
2023-02-27T05:35:24.035Z,0.26
2023-02-27T05:37:56.349Z,0.20
2023-02-27T05:40:32.012Z,0.31
2023-02-27T05:43:04.438Z,0.24
2023-02-27T05:45:38.271Z,0.22
2023-02-27T05:48:10.514Z,0.24
2023-02-27T05:50:39.870Z,0.33
2023-02-27T05:53:12.173Z,0.44
2023-02-27T05:55:43.587Z,0.32
2023-02-27T05:58:18.501Z,0.34
2023-02-27T06:00:52.616Z,0.28
2023-02-27T06:03:21.179Z,0.18
2023-02-27T06:05:52.987Z,0.31
2023-02-27T06:08:21.628Z,0.25
2023-02-27T06:10:50.211Z,0.25
2023-02-27T06:13:18.369Z,0.18
2023-02-27T06:15:46.765Z,0.30
2023-02-27T06:18:17.370Z,0.30
2023-02-27T06:20:45.946Z,0.24
2023-02-27T06:23:14.392Z,0.24
2023-02-27T06:25:42.537Z,0.25
2023-02-27T06:28:10.862Z,0.12
2023-02-27T06:30:38.657Z,0.21
2023-02-27T06:33:06.524Z,0.23
2023-02-27T06:35:35.728Z,0.18
2023-02-27T06:38:03.518Z,0.19
2023-02-27T06:40:31.516Z,0.17
2023-02-27T06:42:59.363Z,0.18
2023-02-27T06:45:27.463Z,0.12
2023-02-27T06:47:55.648Z,0.20
2023-02-27T06:50:23.445Z,0.32
2023-02-27T06:52:52.656Z,0.19
2023-02-27T06:55:22.665Z,0.25
2023-02-27T06:57:50.946Z,0.20
2023-02-27T07:00:19.634Z,0.24
2023-02-27T07:02:47.477Z,0.16
2023-02-27T07:05:15.256Z,0.25
2023-02-27T07:07:43.218Z,0.14
2023-02-27T07:10:16.554Z,0.32
2023-02-27T07:12:44.400Z,0.24
2023-02-27T07:15:13.060Z,0.30
2023-02-27T07:17:40.916Z,0.44
2023-02-27T07:20:11.615Z,0.42
2023-02-27T07:22:39.542Z,0.50
2023-02-27T07:25:09.238Z,0.52
2023-02-27T07:27:38.625Z,0.46
2023-02-27T07:30:07.425Z,0.46
2023-02-27T07:32:35.465Z,0.39
2023-02-27T07:35:04.168Z,0.50
2023-02-27T07:37:31.945Z,0.49
2023-02-27T07:39:59.818Z,0.56
2023-02-27T07:42:27.867Z,0.52
2023-02-27T07:44:57.017Z,0.52
2023-02-27T07:47:24.828Z,0.63
2023-02-27T07:49:52.540Z,0.63
2023-02-27T07:52:20.284Z,0.44
2023-02-27T07:54:48.013Z,0.59
2023-02-27T07:57:15.818Z,0.62
2023-02-27T07:59:43.524Z,0.67
2023-02-27T08:02:13.369Z,0.82
2023-02-27T08:04:41.143Z,0.74
2023-02-27T08:07:08.979Z,0.64
2023-02-27T08:09:36.755Z,0.77
2023-02-27T08:12:04.659Z,0.73
2023-02-27T08:14:32.457Z,0.86
2023-02-27T08:17:01.238Z,0.89
2023-02-27T08:19:30.413Z,1.00
2023-02-27T08:21:58.270Z,0.97
2023-02-27T08:24:26.186Z,0.96
2023-02-27T08:26:53.885Z,1.04
2023-02-27T08:29:21.675Z,1.15
2023-02-27T08:31:50.063Z,1.16
2023-02-27T08:34:18.018Z,1.09
2023-02-27T08:36:47.236Z,1.28
2023-02-27T08:39:14.929Z,1.21
2023-02-27T08:41:43.055Z,1.24
2023-02-27T08:44:12.890Z,1.37
2023-02-27T08:46:40.618Z,1.15
2023-02-27T08:49:08.789Z,1.42
2023-02-27T08:51:36.536Z,1.16
2023-02-27T08:54:05.869Z,1.26
2023-02-27T08:56:34.782Z,1.51
2023-02-27T08:59:02.984Z,1.35
2023-02-27T09:01:34.349Z,1.55
2023-02-27T09:04:03.248Z,1.42
2023-02-27T09:06:32.287Z,1.44
2023-02-27T09:09:00.271Z,1.34
2023-02-27T09:11:30.333Z,1.35
2023-02-27T09:13:58.823Z,1.25
2023-02-27T09:16:27.512Z,1.18
2023-02-27T09:18:55.560Z,1.11
2023-02-27T09:21:24.568Z,1.26
2023-02-27T09:23:52.368Z,1.44
2023-02-27T09:26:21.701Z,1.56
2023-02-27T09:28:52.218Z,1.27
2023-02-27T09:31:20.125Z,1.39
2023-02-27T09:33:48.198Z,1.59
2023-02-27T09:36:16.200Z,1.62
2023-02-27T09:38:44.037Z,1.55
2023-02-27T09:41:33.754Z,1.46
2023-02-27T09:44:04.458Z,1.48
2023-02-27T09:46:32.790Z,1.44
2023-02-27T09:49:03.316Z,1.28
2023-02-27T09:51:31.185Z,1.68
2023-02-27T09:54:02.556Z,1.69
2023-02-27T09:56:35.534Z,1.83
2023-02-27T09:59:14.393Z,1.75
2023-02-27T10:01:49.103Z,1.92
2023-02-27T10:04:32.805Z,1.90
2023-02-27T10:07:07.010Z,1.91
2023-02-27T10:09:48.328Z,2.13
2023-02-27T10:12:31.480Z,2.33
2023-02-27T10:15:05.866Z,2.07
2023-02-27T10:17:39.690Z,2.06
2023-02-27T10:20:11.562Z,1.96
2023-02-27T10:22:45.522Z,1.87
2023-02-27T10:25:30.140Z,2.07
2023-02-27T10:28:10.394Z,1.89
2023-02-27T10:30:39.698Z,2.25
2023-02-27T10:33:11.084Z,2.34
2023-02-27T10:35:42.266Z,2.09
2023-02-27T10:38:15.553Z,1.99
2023-02-27T10:40:44.413Z,1.96
2023-02-27T10:43:15.863Z,2.16
2023-02-27T10:45:45.433Z,1.93
2023-02-27T10:48:14.483Z,2.18
2023-02-27T10:50:44.424Z,1.79
2023-02-27T10:53:22.440Z,2.14
2023-02-27T10:56:01.377Z,2.07
2023-02-27T10:58:34.752Z,2.09
2023-02-27T11:01:07.368Z,1.91
2023-02-27T11:03:40.637Z,1.79
2023-02-27T11:06:14.338Z,2.03
2023-02-27T11:08:42.130Z,2.10
2023-02-27T11:11:12.086Z,1.87
2023-02-27T11:13:42.090Z,1.92
2023-02-27T11:16:15.442Z,1.81
2023-02-27T11:18:44.954Z,1.91
2023-02-27T11:21:18.177Z,1.87
2023-02-27T11:23:55.859Z,1.91
2023-02-27T11:26:31.029Z,1.91
2023-02-27T11:29:18.156Z,1.75
2023-02-27T11:31:52.140Z,1.80
2023-02-27T11:34:23.798Z,1.85
2023-02-27T11:36:54.492Z,1.82
2023-02-27T11:39:26.802Z,1.78
2023-02-27T11:41:56.371Z,1.84
2023-02-27T11:44:50.331Z,1.61
2023-02-27T11:47:22.830Z,1.74
2023-02-27T11:50:29.601Z,1.64
2023-02-27T11:53:15.556Z,1.80
2023-02-27T11:55:45.199Z,1.53
2023-02-27T11:58:16.474Z,1.53
2023-02-27T12:00:50.211Z,1.59
2023-02-27T12:03:23.856Z,1.63
2023-02-27T12:05:55.486Z,1.57
2023-02-27T12:08:31.937Z,1.67
2023-02-27T12:11:13.568Z,1.65
2023-02-27T12:13:46.020Z,1.71
2023-02-27T12:16:20.758Z,1.82
2023-02-27T12:18:55.277Z,1.94
2023-02-27T12:21:28.302Z,1.75
2023-02-27T12:24:03.607Z,1.91
2023-02-27T12:26:35.730Z,1.99
2023-02-27T12:29:10.540Z,1.87
2023-02-27T12:31:48.309Z,1.84
2023-02-27T12:34:27.261Z,1.79
2023-02-27T12:36:55.462Z,1.78
2023-02-27T12:39:25.547Z,1.70
2023-02-27T12:42:12.204Z,1.67
2023-02-27T12:45:05.118Z,1.83
2023-02-27T12:47:42.701Z,1.78
2023-02-27T12:50:16.251Z,1.55
2023-02-27T12:52:58.831Z,1.74
2023-02-27T12:55:29.675Z,1.54
2023-02-27T12:58:16.188Z,1.48
2023-02-27T13:00:49.050Z,1.66
2023-02-27T13:03:23.109Z,1.62
2023-02-27T13:06:01.634Z,1.36
2023-02-27T13:09:00.857Z,1.56
2023-02-27T13:11:41.747Z,1.39
2023-02-27T13:14:21.698Z,1.63
2023-02-27T13:16:57.594Z,1.84
2023-02-27T13:19:30.688Z,1.98
2023-02-27T13:22:10.890Z,2.33
2023-02-27T13:24:43.915Z,1.80
2023-02-27T13:27:20.624Z,2.17
2023-02-27T13:29:56.606Z,1.85
2023-02-27T13:32:42.842Z,1.70
2023-02-27T13:35:24.648Z,2.18
2023-02-27T13:37:58.577Z,2.00
2023-02-27T13:40:36.504Z,2.19
2023-02-27T13:43:07.229Z,2.47
2023-02-27T13:45:52.127Z,2.09
2023-02-27T13:48:46.341Z,1.86
2023-02-27T13:51:59.615Z,1.60
2023-02-27T13:54:41.512Z,1.17
2023-02-27T13:57:23.004Z,1.27
2023-02-27T14:00:00.506Z,1.07
2023-02-27T14:02:58.298Z,1.16
2023-02-27T14:05:30.994Z,1.41
2023-02-27T14:08:04.721Z,1.42
2023-02-27T14:10:34.845Z,1.44
2023-02-27T14:13:03.742Z,1.54
2023-02-27T14:15:55.380Z,1.24
2023-02-27T14:18:57.873Z,1.32
2023-02-27T14:21:44.275Z,1.10
2023-02-27T14:24:15.283Z,1.28
2023-02-27T14:26:46.661Z,1.12
2023-02-27T14:29:19.801Z,1.15
2023-02-27T14:31:48.929Z,1.22
2023-02-27T14:34:21.168Z,1.31
2023-02-27T14:36:53.130Z,1.32
2023-02-27T14:39:23.309Z,1.20
2023-02-27T14:42:02.313Z,1.05
2023-02-27T14:44:39.710Z,1.15
2023-02-27T14:47:07.892Z,0.82
2023-02-27T14:49:37.598Z,1.14
2023-02-27T14:52:13.401Z,1.13
2023-02-27T14:54:41.244Z,1.03
2023-02-27T14:57:17.642Z,1.01
2023-02-27T14:59:47.938Z,1.21
2023-02-27T15:02:22.656Z,1.29
2023-02-27T15:04:55.780Z,1.10
2023-02-27T15:07:26.862Z,1.15
2023-02-27T15:09:56.869Z,1.13
2023-02-27T15:12:27.810Z,1.21
2023-02-27T15:14:58.666Z,1.19
2023-02-27T15:17:29.002Z,1.33
2023-02-27T15:19:59.164Z,0.95
2023-02-27T15:22:38.878Z,1.00
2023-02-27T15:25:08.610Z,0.89
2023-02-27T15:27:38.520Z,0.89
2023-02-27T15:30:09.598Z,1.06
2023-02-27T15:32:43.050Z,0.84
2023-02-27T15:35:17.739Z,0.91
2023-02-27T15:37:48.754Z,0.78
2023-02-27T15:40:22.810Z,0.85
2023-02-27T15:42:54.082Z,0.65
2023-02-27T15:45:23.991Z,0.63
2023-02-27T15:47:52.502Z,0.64
2023-02-27T15:50:28.348Z,0.62
2023-02-27T15:53:03.788Z,0.72
2023-02-27T15:55:35.294Z,0.62
2023-02-27T15:58:07.067Z,0.72
2023-02-27T16:00:35.678Z,0.60
2023-02-27T16:03:03.730Z,0.53
2023-02-27T16:05:36.616Z,0.55
2023-02-27T16:08:05.655Z,0.50
2023-02-27T16:10:37.828Z,0.55
2023-02-27T16:13:22.388Z,0.55
2023-02-27T16:16:00.540Z,0.60
2023-02-27T16:18:34.561Z,0.53
2023-02-27T16:21:14.902Z,0.53
2023-02-27T16:23:43.200Z,0.52
2023-02-27T16:26:28.011Z,0.41
2023-02-27T16:28:59.962Z,0.53
2023-02-27T16:31:31.064Z,0.57
2023-02-27T16:34:01.324Z,0.57
2023-02-27T16:36:32.074Z,0.53
2023-02-27T16:39:00.036Z,0.35
2023-02-27T16:41:28.705Z,0.61
2023-02-27T16:43:58.020Z,0.51
2023-02-27T16:46:26.008Z,0.54
2023-02-27T16:48:55.892Z,0.43
2023-02-27T16:51:25.707Z,0.57
2023-02-27T16:53:55.122Z,0.34
2023-02-27T16:56:37.346Z,0.51
2023-02-27T16:59:07.166Z,0.44
2023-02-27T17:01:34.965Z,0.48
2023-02-27T17:04:05.272Z,0.42
2023-02-27T17:06:36.489Z,0.56
2023-02-27T17:09:04.723Z,0.50
2023-02-27T17:11:32.458Z,0.47
2023-02-27T17:14:00.158Z,0.50
2023-02-27T17:16:29.757Z,0.44
2023-02-27T17:18:57.817Z,0.45
2023-02-27T17:21:25.638Z,0.53
2023-02-27T17:23:53.456Z,0.49
2023-02-27T17:26:21.495Z,0.37
2023-02-27T17:28:49.402Z,0.26
2023-02-27T17:31:22.712Z,0.38
2023-02-27T17:33:52.456Z,0.38
2023-02-27T17:36:20.587Z,0.31
2023-02-27T17:38:49.054Z,0.32
2023-02-27T17:41:17.413Z,0.33
2023-02-27T17:43:45.191Z,0.22
2023-02-27T17:46:14.636Z,0.26
2023-02-27T17:48:42.436Z,0.14
2023-02-27T17:51:14.588Z,0.22
2023-02-27T17:53:42.581Z,0.20
2023-02-27T17:56:10.997Z,0.14
2023-02-27T17:58:38.912Z,0.18
2023-02-27T18:01:07.401Z,0.22
2023-02-27T18:03:35.430Z,0.14
2023-02-27T18:06:03.387Z,0.22
2023-02-27T18:08:32.780Z,0.03
2023-02-27T18:11:01.166Z,0.16
2023-02-27T18:13:29.209Z,0.12
2023-02-27T18:15:57.857Z,0.05
2023-02-27T18:18:25.632Z,-0.02
2023-02-27T18:21:02.306Z,-0.02
2023-02-27T18:23:30.464Z,0.07
2023-02-27T18:26:01.193Z,0.06
2023-02-27T18:28:29.872Z,-0.06
2023-02-27T18:30:58.239Z,-0.13
2023-02-27T18:33:27.392Z,-0.03
2023-02-27T18:35:55.508Z,-0.08
2023-02-27T18:38:23.459Z,-0.12
2023-02-27T18:40:51.202Z,-0.10
2023-02-27T18:43:20.474Z,-0.17
2023-02-27T18:45:48.665Z,-0.09
2023-02-27T18:48:17.084Z,-0.04
2023-02-27T18:50:44.959Z,0.02
2023-02-27T18:53:12.712Z,-0.14
2023-02-27T18:55:40.543Z,-0.15
2023-02-27T18:58:08.329Z,-0.12
2023-02-27T19:00:37.816Z,-0.10
2023-02-27T19:03:06.389Z,-0.03
2023-02-27T19:05:34.674Z,0.04
2023-02-27T19:08:02.410Z,0.06
2023-02-27T19:10:31.011Z,-0.07
2023-02-27T19:12:58.784Z,0.10
2023-02-27T19:15:26.527Z,0.10
2023-02-27T19:17:55.632Z,0.02
2023-02-27T19:20:23.723Z,0.05
2023-02-27T19:22:53.426Z,-0.01
2023-02-27T19:25:22.054Z,-0.04
2023-02-27T19:27:53.543Z,-0.01
2023-02-27T19:30:21.499Z,0.03
2023-02-27T19:32:49.367Z,0.03
2023-02-27T19:35:19.069Z,0.06
2023-02-27T19:37:48.714Z,-0.01
2023-02-27T19:40:17.144Z,-0.06
2023-02-27T19:42:45.731Z,0.01
2023-02-27T19:45:13.573Z,0.00
2023-02-27T19:47:41.366Z,-0.06
2023-02-27T19:50:10.607Z,-0.08
2023-02-27T19:52:39.799Z,0.01
2023-02-27T19:55:08.368Z,-0.02
2023-02-27T19:57:37.066Z,-0.13
2023-02-27T20:00:06.499Z,-0.03
2023-02-27T20:02:34.329Z,-0.10
2023-02-27T20:05:03.121Z,0.01
2023-02-27T20:07:32.099Z,-0.03
2023-02-27T20:10:01.207Z,0.08
2023-02-27T20:12:28.946Z,0.00
2023-02-27T20:14:56.663Z,-0.21
2023-02-27T20:17:24.427Z,-0.09
2023-02-27T20:19:52.167Z,-0.04
2023-02-27T20:22:19.944Z,-0.10
2023-02-27T20:24:47.815Z,-0.04
2023-02-27T20:27:16.938Z,-0.03
2023-02-27T20:29:44.634Z,0.03
2023-02-27T20:32:12.462Z,-0.04
2023-02-27T20:34:40.230Z,-0.03
2023-02-27T20:37:07.964Z,-0.11
2023-02-27T20:39:35.923Z,-0.01
2023-02-27T20:42:04.412Z,-0.06
2023-02-27T20:44:33.607Z,-0.01
2023-02-27T20:47:01.434Z,0.02
2023-02-27T20:49:29.184Z,-0.06
2023-02-27T20:51:57.768Z,-0.01
2023-02-27T20:54:25.595Z,-0.18
2023-02-27T20:56:54.455Z,-0.08
2023-02-27T20:59:24.648Z,-0.02
2023-02-27T21:01:54.459Z,0.04
2023-02-27T21:04:24.057Z,0.04
2023-02-27T21:06:52.754Z,0.05
2023-02-27T21:09:20.525Z,0.02
2023-02-27T21:11:48.374Z,-0.13
2023-02-27T21:14:16.364Z,-0.04
2023-02-27T21:16:44.140Z,0.02
2023-02-27T21:19:13.244Z,-0.01
2023-02-27T21:21:40.943Z,-0.10
2023-02-27T21:24:09.018Z,0.00
2023-02-27T21:26:39.226Z,0.05
2023-02-27T21:29:08.833Z,0.03
2023-02-27T21:31:39.232Z,0.03
2023-02-27T21:34:11.739Z,0.15
2023-02-27T21:36:44.216Z,0.07
2023-02-27T21:39:15.171Z,0.12
2023-02-27T21:41:43.131Z,0.07
2023-02-27T21:44:13.878Z,0.13
2023-02-27T21:46:42.347Z,0.14
2023-02-27T21:49:13.741Z,0.07
2023-02-27T21:51:43.532Z,0.05
2023-02-27T21:54:13.374Z,0.00
2023-02-27T21:56:41.949Z,-0.03
2023-02-27T21:59:09.993Z,-0.04
2023-02-27T22:01:38.674Z,-0.09
2023-02-27T22:04:06.898Z,-0.17
2023-02-27T22:06:35.856Z,-0.06
2023-02-27T22:09:07.646Z,0.06
2023-02-27T22:11:36.053Z,-0.01
2023-02-27T22:14:04.229Z,-0.07
2023-02-27T22:16:32.133Z,0.06
2023-02-27T22:18:59.955Z,0.05
2023-02-27T22:21:28.680Z,0.01
2023-02-27T22:23:58.186Z,0.00
2023-02-27T22:26:31.196Z,0.09
2023-02-27T22:29:00.322Z,0.07
2023-02-27T22:31:30.387Z,0.02
2023-02-27T22:34:03.366Z,0.00
2023-02-27T22:36:32.766Z,-0.10
2023-02-27T22:39:00.815Z,0.09
2023-02-27T22:41:32.638Z,-0.10
2023-02-27T22:44:04.204Z,-0.11
2023-02-27T22:46:34.440Z,0.00
2023-02-27T22:49:04.924Z,-0.07
2023-02-27T22:51:32.997Z,-0.11
2023-02-27T22:54:03.207Z,0.00
2023-02-27T22:56:33.508Z,0.06
2023-02-27T22:59:01.608Z,0.11
2023-02-27T23:01:31.457Z,-0.02
2023-02-27T23:04:02.009Z,0.01
2023-02-27T23:06:32.245Z,0.00
2023-02-27T23:09:00.929Z,-0.02
2023-02-27T23:11:28.928Z,-0.10
2023-02-27T23:13:58.669Z,-0.01
2023-02-27T23:16:26.684Z,0.08
2023-02-27T23:18:56.381Z,0.11
2023-02-27T23:21:26.845Z,-0.02
2023-02-27T23:23:57.416Z,0.10
2023-02-27T23:26:28.581Z,-0.03
2023-02-27T23:28:58.598Z,0.11
2023-02-27T23:31:26.474Z,0.01
2023-02-27T23:33:54.858Z,-0.03
2023-02-27T23:36:22.614Z,0.01
2023-02-27T23:38:50.471Z,-0.02
2023-02-27T23:41:20.675Z,0.04
2023-02-27T23:44:10.340Z,0.06
2023-02-27T23:46:40.784Z,0.07
2023-02-27T23:49:08.858Z,-0.01
2023-02-27T23:51:37.040Z,0.01
2023-02-27T23:54:05.325Z,0.00
2023-02-27T23:56:33.148Z,-0.03
2023-02-27T23:59:02.376Z,0.00
